KMLP - Mullan Pass
Updated: Tue, 17-Jul-2018 3:53am PDT
Clear
Clear
 Wind from NW
Wind: NW at 6 mph , 9 km/h
Temperature : 64°F , 18°C
Dew Point : 30°F , -1°C
Humidity : 28%
Barometer : 30.23 inHg , 1023.7 hPa
Clouds : Clear
Visibility : 10 miles , 16 km
2018/07/17 10:53 KMLP 171053Z AUTO 32005KT 10SM CLR 18/M01 A3023 RMK AO2 SLP120 T01831011

 

KCOE - Coeur d Alene
Updated: Tue, 17-Jul-2018 3:56am PDT
Clear
Clear
 Wind from SE
Wind: SE at 7 mph , 11 km/h
Temperature : 63°F , 17°C
Dew Point : 52°F , 11°C
Humidity : 68%
Barometer : 30.02 inHg , 1016.6 hPa
Clouds : Clear
Visibility : 10 miles , 16 km
2018/07/17 10:56 KCOE 171056Z AUTO 13006KT 10SM CLR 17/11 A3002 RMK AO2 SLP158 T01720106 PNO $

 

KLWS - Lewiston
Updated: Tue, 17-Jul-2018 3:56am PDT
Clear
Clear
 Wind from calm
Wind: Calm
Temperature : 64°F , 18°C
Dew Point : 43°F , 6°C
Humidity : 46%
Barometer : 29.98 inHg , 1015.2 hPa
Clouds : Clear
Visibility : 10 miles , 16 km
2018/07/17 10:56 KLWS 171056Z AUTO 00000KT 10SM CLR 18/06 A2998 RMK AO2 SLP141 T01830061

 

KGEG - Spokane Intl
Updated: Tue, 17-Jul-2018 3:53am PDT
Partly cloudy
Partly cloudy
 Wind from S
Wind: S at 5 mph , 7 km/h
Temperature : 66°F , 19°C
Dew Point : 45°F , 7°C
Humidity : 46%
Barometer : 30.00 inHg , 1015.9 hPa
Clouds : Partly cloudy
Visibility : 10 miles , 16 km
2018/07/17 10:53 KGEG 171053Z 18004KT 10SM FEW100 FEW170 FEW200 SCT250 19/07 A3000 RMK AO2 SLP138 FU FEW100 T01890067